Time;durP1;ratioP1;P1;durP2;ratioP2;P2;SDS_P1;SDS_P2;PMS_P1;PMS_P2;Temp;Humidity;BMP_temperature;BMP_pressure;BME280_temperature;BME280_humidity;BME280_pressure;Samples;Min_cycle;Max_cycle;Signal;HPM_P1;HPM_P2
2022/03/09 00:01:23;;;;;;;7.43;4.60;;;;;;;10.87;22.63;101801.94;4926270;29;20400;-80
2022/03/09 00:03:50;;;;;;;7.70;4.80;;;;;;;10.86;22.56;101813.78;4934261;28;20071;-80
2022/03/09 00:06:16;;;;;;;7.95;5.00;;;;;;;10.85;22.51;101813.84;4934328;29;20570;-81
2022/03/09 00:08:43;;;;;;;6.70;4.20;;;;;;;10.84;22.65;101809.38;4926625;29;20047;-81
2022/03/09 00:11:10;;;;;;;6.63;4.68;;;;;;;10.85;22.55;101819.28;4935203;29;20115;-80
2022/03/09 00:13:36;;;;;;;7.10;4.80;;;;;;;10.83;22.72;101813.94;4936244;29;20126;-80
2022/03/09 00:16:03;;;;;;;7.57;4.50;;;;;;;10.80;22.71;101814.09;4932765;29;20142;-80
2022/03/09 00:18:30;;;;;;;7.07;4.50;;;;;;;10.79;22.87;101823.19;4913561;28;20078;-80
2022/03/09 00:20:57;;;;;;;8.32;4.68;;;;;;;10.80;22.58;101821.34;4933082;29;20118;-81
2022/03/09 00:23:27;;;;;;;7.85;4.88;;;;;;;10.77;22.56;101825.13;4933642;29;20218;-81
2022/03/09 00:25:54;;;;;;;6.03;4.15;;;;;;;10.76;22.72;101822.47;4940088;29;20058;-81
2022/03/09 00:28:33;;;;;;;7.45;4.70;;;;;;;10.76;22.78;101826.09;4940323;29;20107;-81
2022/03/09 00:31:02;;;;;;;7.85;4.78;;;;;;;10.72;22.76;101832.63;4935535;29;20047;-81
2022/03/09 00:33:31;;;;;;;7.30;4.40;;;;;;;10.72;22.58;101835.34;4940241;29;20063;-80
2022/03/09 00:35:58;;;;;;;6.28;4.30;;;;;;;10.72;22.71;101832.63;4919532;29;20495;-81
2022/03/09 00:38:25;;;;;;;8.63;4.80;;;;;;;10.70;22.79;101841.81;4919155;29;20060;-81
2022/03/09 00:40:53;;;;;;;7.70;5.20;;;;;;;10.68;22.87;101847.31;4934232;29;20563;-81
2022/03/09 00:43:20;;;;;;;7.30;4.90;;;;;;;10.66;22.86;101851.94;4912726;29;20167;-81
2022/03/09 00:45:46;;;;;;;6.63;4.47;;;;;;;10.64;22.53;101848.44;4933449;29;20106;-81
2022/03/09 00:48:13;;;;;;;8.80;5.13;;;;;;;10.62;22.71;101855.78;4937241;28;20062;-81
2022/03/09 00:50:40;;;;;;;6.93;4.82;;;;;;;10.61;22.61;101852.19;4920758;29;20107;-81
2022/03/09 00:53:06;;;;;;;7.38;4.43;;;;;;;10.61;22.46;101854.91;4921988;29;20106;-81
2022/03/09 00:55:37;;;;;;;7.90;4.75;;;;;;;10.60;22.91;101849.56;4941394;29;20059;-81
2022/03/09 00:58:03;;;;;;;8.27;4.90;;;;;;;10.58;22.98;101865.03;4924805;29;20106;-81
2022/03/09 01:00:30;;;;;;;7.90;5.20;;;;;;;10.56;22.82;101854.25;4916094;29;20484;-81
2022/03/09 01:02:57;;;;;;;8.35;5.38;;;;;;;10.55;22.88;101863.34;4937169;29;20108;-81
2022/03/09 01:05:24;;;;;;;7.22;4.60;;;;;;;10.54;22.83;101869.72;4948516;28;20055;-81
2022/03/09 01:07:50;;;;;;;9.02;5.30;;;;;;;10.52;22.94;101854.50;4933431;29;20079;-81
2022/03/09 01:10:22;;;;;;;6.88;5.00;;;;;;;10.53;23.04;101846.28;4933025;29;20071;-81
2022/03/09 01:12:49;;;;;;;8.33;4.93;;;;;;;10.48;23.11;101851.06;4923125;29;20107;-81
2022/03/09 01:15:16;;;;;;;7.38;5.22;;;;;;;10.49;23.18;101854.66;4913122;29;20374;-81
2022/03/09 01:17:44;;;;;;;8.10;5.05;;;;;;;10.47;23.00;101851.13;4925337;29;20103;-81
2022/03/09 01:20:11;;;;;;;8.85;4.75;;;;;;;10.45;23.12;101850.34;4917680;29;20114;-81
2022/03/09 01:22:38;;;;;;;7.43;4.72;;;;;;;10.43;23.18;101852.25;4926701;29;20444;-81
2022/03/09 01:25:05;;;;;;;7.32;4.43;;;;;;;10.41;23.02;101846.88;4938310;29;20139;-81
2022/03/09 01:27:32;;;;;;;6.97;4.47;;;;;;;10.40;23.02;101846.97;4942897;29;20134;-81
2022/03/09 01:29:59;;;;;;;8.73;4.80;;;;;;;10.39;23.23;101843.38;4935171;29;20139;-81
2022/03/09 01:32:25;;;;;;;7.03;4.47;;;;;;;10.38;22.99;101843.47;4918235;29;20488;-81
2022/03/09 01:34:52;;;;;;;7.78;4.68;;;;;;;10.37;23.21;101839.88;4936006;28;20171;-81
2022/03/09 01:37:19;;;;;;;8.52;4.80;;;;;;;10.36;23.29;101843.53;4933849;29;20134;-81
2022/03/09 01:39:45;;;;;;;7.93;4.65;;;;;;;10.35;23.33;101839.06;4931148;29;20455;-81
2022/03/09 01:42:12;;;;;;;7.78;4.88;;;;;;;10.35;23.08;101835.47;4926229;29;20090;-81
2022/03/09 01:44:39;;;;;;;7.43;4.88;;;;;;;10.33;23.33;101830.09;4927024;29;20384;-81
2022/03/09 01:47:06;;;;;;;7.72;4.70;;;;;;;10.29;23.21;101821.22;4936610;29;20508;-81
2022/03/09 01:49:33;;;;;;;7.32;4.20;;;;;;;10.29;23.07;101826.66;4938044;28;20055;-82
2022/03/09 01:52:00;;;;;;;8.48;4.50;;;;;;;10.29;23.23;101820.38;4933365;29;20113;-81
2022/03/09 01:54:28;;;;;;;7.43;4.47;;;;;;;10.28;23.02;101815.91;4918319;29;20115;-82
2022/03/09 01:56:55;;;;;;;7.28;4.78;;;;;;;10.25;23.09;101808.78;4916793;29;20472;-80
2022/03/09 01:59:22;;;;;;;7.85;4.85;;;;;;;10.22;23.24;101819.78;4941744;28;20566;-81
2022/03/09 02:01:49;;;;;;;6.60;4.68;;;;;;;10.20;23.20;101815.41;4915808;29;20103;-81
2022/03/09 02:04:18;;;;;;;7.85;4.55;;;;;;;10.18;23.29;101820.91;4940836;29;20058;-81
2022/03/09 02:06:45;;;;;;;7.95;4.30;;;;;;;10.15;23.05;101814.72;4923676;29;20500;-81
2022/03/09 02:11:58;;;;;;;6.90;4.70;;;;;;;10.08;23.21;101824.09;4933626;29;20044;-81
2022/03/09 02:14:31;;;;;;;8.00;4.40;;;;;;;10.07;23.22;101820.50;4927257;29;20461;-80
2022/03/09 02:17:02;;;;;;;7.10;4.35;;;;;;;10.02;23.35;101821.72;4936602;29;20505;-81
2022/03/09 02:19:30;;;;;;;7.43;4.70;;;;;;;9.98;23.44;101828.22;4913583;29;20051;-81
2022/03/09 02:22:19;;;;;;;7.82;4.32;;;;;;;9.95;23.53;101826.56;4932582;29;20044;-81
2022/03/09 02:24:47;;;;;;;6.30;4.10;;;;;;;9.91;23.41;101823.09;4931252;29;20075;-81
2022/03/09 02:27:14;;;;;;;8.18;4.55;;;;;;;9.88;23.21;101827.81;4929796;29;20107;-80
2022/03/09 02:29:41;;;;;;;6.00;4.47;;;;;;;9.87;23.06;101826.06;4936170;29;20051;-81
2022/03/09 02:32:08;;;;;;;7.45;4.47;;;;;;;9.84;23.34;101826.19;4919451;29;20119;-81
2022/03/09 02:34:35;;;;;;;8.27;4.63;;;;;;;9.81;23.72;101829.91;4934252;29;20080;-80
2022/03/09 02:37:01;;;;;;;6.18;4.10;;;;;;;9.78;23.13;101831.91;4915331;29;20139;-80
2022/03/09 02:39:28;;;;;;;7.07;4.15;;;;;;;9.78;23.48;101832.78;4928940;29;20143;-81
2022/03/09 02:41:55;;;;;;;6.28;3.75;;;;;;;9.75;23.37;101841.06;4931555;29;20547;-81
2022/03/09 02:44:22;;;;;;;7.20;4.10;;;;;;;9.76;23.72;101842.84;4930802;29;20323;-81
2022/03/09 02:46:48;;;;;;;6.88;4.40;;;;;;;9.76;23.74;101839.25;4923147;29;20056;-81
2022/03/09 02:49:15;;;;;;;6.80;4.32;;;;;;;9.75;23.46;101835.66;4920372;29;20051;-80
2022/03/09 02:51:42;;;;;;;8.63;4.50;;;;;;;9.77;23.57;101847.31;4936024;29;20147;-81
2022/03/09 02:54:08;;;;;;;7.22;4.38;;;;;;;9.76;23.51;101840.13;4927629;29;20149;-81
2022/03/09 02:56:35;;;;;;;7.38;4.35;;;;;;;9.76;23.57;101837.41;4939032;29;20161;-82
2022/03/09 02:59:02;;;;;;;6.22;4.30;;;;;;;9.76;23.55;101839.25;4932671;29;20498;-81
2022/03/09 03:01:28;;;;;;;7.30;4.57;;;;;;;9.74;23.69;101823.03;4916055;29;20055;-80
2022/03/09 03:03:55;;;;;;;6.95;4.00;;;;;;;9.75;23.60;101823.91;4935224;29;20126;-80
2022/03/09 03:06:22;;;;;;;5.80;4.13;;;;;;;9.74;23.65;101824.88;4931257;29;20058;-80
2022/03/09 03:08:49;;;;;;;6.82;3.97;;;;;;;9.74;23.54;101822.16;4916606;29;20059;-80
2022/03/09 03:11:16;;;;;;;9.18;4.57;;;;;;;9.74;23.80;101809.47;4931084;29;20052;-81
2022/03/09 03:13:45;;;;;;;7.70;4.18;;;;;;;9.73;23.44;101820.38;4919086;29;20043;-81
2022/03/09 03:16:12;;;;;;;6.47;3.90;;;;;;;9.72;23.70;101805.06;4925209;29;20099;-80
2022/03/09 03:18:39;;;;;;;5.85;4.20;;;;;;;9.69;23.71;101816.09;4934114;28;20070;-80
2022/03/09 03:21:05;;;;;;;6.47;4.30;;;;;;;9.67;23.68;101812.56;4920711;29;20135;-80
2022/03/09 03:23:33;;;;;;;6.90;4.10;;;;;;;9.65;23.56;101819.88;4934144;29;20064;-81
2022/03/09 03:26:03;;;;;;;8.02;4.40;;;;;;;9.64;23.76;101821.72;4937705;29;20071;-80
2022/03/09 03:28:31;;;;;;;6.72;4.32;;;;;;;9.61;23.77;101815.56;4933634;29;20048;-80
2022/03/09 03:30:58;;;;;;;6.63;4.05;;;;;;;9.59;23.78;101817.47;4938604;29;20056;-80
2022/03/09 03:33:25;;;;;;;7.05;4.35;;;;;;;9.58;23.80;101810.28;4919510;29;20468;-80
2022/03/09 03:35:52;;;;;;;6.15;3.92;;;;;;;9.55;23.75;101817.59;4937797;29;20107;-80
2022/03/09 03:38:19;;;;;;;6.25;4.03;;;;;;;9.55;23.98;101816.75;4918677;29;20083;-80
2022/03/09 03:40:46;;;;;;;6.07;4.15;;;;;;;9.53;23.63;101808.69;4919848;29;20052;-80
2022/03/09 03:43:13;;;;;;;6.72;4.40;;;;;;;9.51;24.04;101810.59;4916117;29;20115;-80
2022/03/09 03:45:39;;;;;;;7.70;4.15;;;;;;;9.50;23.61;101811.53;4937557;29;20052;-80
2022/03/09 03:48:06;;;;;;;6.47;3.95;;;;;;;9.49;23.64;101809.75;4930373;29;20133;-80
2022/03/09 03:50:34;;;;;;;6.63;4.05;;;;;;;9.50;24.23;101814.25;4924070;29;20134;-80
2022/03/09 03:53:01;;;;;;;7.53;4.20;;;;;;;9.50;23.89;101811.53;4926397;29;20055;-81
2022/03/09 03:55:27;;;;;;;6.75;4.10;;;;;;;9.51;24.11;101812.41;4929390;29;20081;-80
2022/03/09 03:57:57;;;;;;;7.75;4.60;;;;;;;9.51;23.85;101805.16;4939795;29;20056;-80
2022/03/09 04:00:24;;;;;;;7.28;4.32;;;;;;;9.52;23.92;101806.03;4936328;29;20063;-80
2022/03/09 04:02:51;;;;;;;8.75;4.65;;;;;;;9.52;24.20;101800.63;4934338;29;20063;-81
2022/03/09 04:05:19;;;;;;;7.38;4.00;;;;;;;9.51;23.68;101802.44;4934380;28;20047;-80
2022/03/09 04:07:46;;;;;;;7.53;4.20;;;;;;;9.53;23.82;101805.09;4941265;29;20075;-80
2022/03/09 04:10:13;;;;;;;7.70;4.40;;;;;;;9.52;23.92;101812.34;4940945;29;20449;-80
2022/03/09 04:12:40;;;;;;;5.93;3.70;;;;;;;9.51;24.02;101807.88;4934919;29;20079;-80
2022/03/09 04:15:07;;;;;;;6.57;4.20;;;;;;;9.51;23.77;101807.00;4933164;29;20136;-80
2022/03/09 04:17:44;;;;;;;6.90;3.83;;;;;;;9.54;24.09;101807.75;4935346;29;20054;-80
2022/03/09 04:20:12;;;;;;;6.75;4.25;;;;;;;9.50;24.23;101811.53;4933324;29;20158;-80
2022/03/09 04:22:40;;;;;;;7.47;3.95;;;;;;;9.50;24.28;101805.22;4939618;29;20048;-80
2022/03/09 04:25:07;;;;;;;7.45;4.47;;;;;;;9.49;24.16;101801.63;4931047;29;20066;-80
2022/03/09 04:27:34;;;;;;;6.05;4.15;;;;;;;9.49;23.74;101808.88;4940827;29;20107;-80
2022/03/09 04:30:01;;;;;;;5.82;4.13;;;;;;;9.47;23.86;101806.25;4942166;29;20119;-80
2022/03/09 04:32:28;;;;;;;7.72;4.50;;;;;;;9.47;23.93;101808.09;4932757;29;20102;-80
2022/03/09 04:34:54;;;;;;;5.95;4.15;;;;;;;9.45;24.26;101810.00;4932130;29;20071;-81
2022/03/09 04:37:21;;;;;;;7.57;4.22;;;;;;;9.45;23.91;101813.59;4936323;29;20146;-80
2022/03/09 04:39:48;;;;;;;7.30;4.78;;;;;;;9.44;24.08;101811.81;4918102;29;20138;-80
2022/03/09 04:42:15;;;;;;;8.07;4.30;;;;;;;9.44;24.20;101819.06;4925031;29;20082;-81
2022/03/09 04:44:42;;;;;;;7.25;3.97;;;;;;;9.42;23.99;101821.84;4939690;29;20059;-79
2022/03/09 04:47:11;;;;;;;7.15;4.38;;;;;;;9.40;23.98;101810.19;4943820;29;20055;-80
2022/03/09 04:49:38;;;;;;;6.20;4.25;;;;;;;9.41;24.19;101817.38;4932865;29;20142;-80
2022/03/09 04:52:05;;;;;;;6.47;4.03;;;;;;;9.40;24.01;101815.63;4921764;29;20052;-80
2022/03/09 04:54:31;;;;;;;7.32;4.13;;;;;;;9.38;24.09;101806.69;4916249;29;20143;-80
2022/03/09 04:56:58;;;;;;;6.72;4.53;;;;;;;9.38;24.30;101808.53;4935486;29;20053;-81
2022/03/09 04:59:25;;;;;;;7.45;4.65;;;;;;;9.35;23.88;101803.25;4918425;29;20134;-80
2022/03/09 05:01:51;;;;;;;7.28;4.57;;;;;;;9.31;24.14;101809.75;4928832;29;20083;-80
2022/03/09 05:04:18;;;;;;;6.82;4.57;;;;;;;9.27;24.15;101810.84;4932074;29;20047;-80
2022/03/09 05:06:45;;;;;;;7.47;4.53;;;;;;;9.22;24.08;101813.78;4918254;29;20054;-80
2022/03/09 05:09:11;;;;;;;6.57;4.28;;;;;;;9.15;24.23;101807.75;4920901;29;20126;-80
2022/03/09 05:11:38;;;;;;;8.40;4.60;;;;;;;9.10;24.16;101809.78;4942991;29;20083;-80
2022/03/09 05:14:05;;;;;;;10.10;4.60;;;;;;;9.05;23.98;101814.56;4932336;28;20067;-81
2022/03/09 05:16:32;;;;;;;7.28;4.40;;;;;;;9.03;24.23;101818.28;4935197;29;20091;-80
2022/03/09 05:18:59;;;;;;;8.52;4.10;;;;;;;9.01;24.33;101818.31;4930913;29;20079;-81
2022/03/09 05:21:26;;;;;;;7.72;4.80;;;;;;;9.00;24.57;101815.69;4938298;29;20074;-80
2022/03/09 05:23:53;;;;;;;7.97;4.63;;;;;;;9.00;24.41;101823.81;4917936;29;20500;-80
2022/03/09 05:26:19;;;;;;;8.25;4.32;;;;;;;9.00;24.37;101819.28;4933138;29;20515;-80
2022/03/09 05:28:46;;;;;;;8.18;4.53;;;;;;;9.00;24.45;101824.69;4940444;28;20059;-80
2022/03/09 05:31:14;;;;;;;8.30;4.70;;;;;;;9.02;24.37;101822.81;4940798;29;20134;-80
2022/03/09 05:33:40;;;;;;;5.78;3.75;;;;;;;9.01;24.44;101831.00;4910739;29;20098;-80
2022/03/09 05:36:07;;;;;;;7.28;4.10;;;;;;;9.02;24.41;101828.22;4922882;29;20131;-80
2022/03/09 05:38:35;;;;;;;7.57;4.63;;;;;;;9.01;24.52;101820.16;4918036;29;20055;-82
2022/03/09 05:41:02;;;;;;;6.80;4.28;;;;;;;8.99;24.48;101828.34;4931920;29;20067;-80
2022/03/09 05:43:29;;;;;;;7.28;4.32;;;;;;;8.98;24.42;101832.00;4930772;29;20055;-80
2022/03/09 05:45:55;;;;;;;6.60;4.72;;;;;;;8.97;24.59;101832.97;4914732;29;20130;-83
2022/03/09 05:48:22;;;;;;;6.07;4.15;;;;;;;8.97;24.46;101829.38;4930346;29;20047;-81
2022/03/09 05:50:49;;;;;;;8.95;4.65;;;;;;;8.96;24.51;101839.34;4915527;29;20054;-81
2022/03/09 05:53:16;;;;;;;7.40;4.20;;;;;;;8.94;24.60;101841.22;4933757;29;20130;-81
2022/03/09 05:55:44;;;;;;;7.70;4.32;;;;;;;8.93;24.33;101842.16;4916158;29;20075;-81
2022/03/09 05:58:10;;;;;;;7.40;4.45;;;;;;;8.93;24.38;101838.56;4926508;28;20134;-80
2022/03/09 06:00:37;;;;;;;7.20;4.28;;;;;;;8.92;24.50;101843.13;4940400;29;20107;-80
2022/03/09 06:03:04;;;;;;;7.15;4.15;;;;;;;8.92;24.60;101843.13;4920784;29;20047;-81
2022/03/09 06:05:30;;;;;;;7.85;4.63;;;;;;;8.92;24.72;101840.41;4925224;29;20092;-81
2022/03/09 06:07:57;;;;;;;7.55;4.68;;;;;;;8.93;24.46;101839.47;4943530;29;20051;-81
2022/03/09 06:10:25;;;;;;;7.72;4.25;;;;;;;8.93;24.67;101839.47;4955084;29;20047;-80
2022/03/09 06:12:52;;;;;;;8.25;4.57;;;;;;;8.94;24.61;101846.66;4931549;29;20071;-81
2022/03/09 06:15:19;;;;;;;8.27;4.82;;;;;;;8.97;24.80;101842.94;4940267;29;20082;-79
2022/03/09 06:17:47;;;;;;;7.45;4.57;;;;;;;8.96;24.44;101846.59;4936162;28;20546;-80
2022/03/09 06:20:16;;;;;;;8.05;5.00;;;;;;;8.95;24.63;101848.41;4917614;29;20064;-80
2022/03/09 06:22:43;;;;;;;7.28;4.60;;;;;;;8.95;24.78;101850.22;4931767;29;20044;-80
2022/03/09 06:25:10;;;;;;;8.95;4.75;;;;;;;8.94;24.59;101857.47;4932350;29;20052;-80
2022/03/09 06:27:52;;;;;;;6.95;4.63;;;;;;;8.97;25.24;101856.47;4934234;28;20475;-80
2022/03/09 06:30:24;;;;;;;8.10;4.88;;;;;;;8.93;24.92;101854.81;4912608;29;20504;-79
2022/03/09 06:32:51;;;;;;;6.80;4.65;;;;;;;8.92;24.69;101855.78;4940819;29;20090;-80
2022/03/09 06:35:17;;;;;;;8.40;5.10;;;;;;;8.91;25.02;101852.19;4932848;28;20143;-79
2022/03/09 06:37:44;;;;;;;7.60;5.20;;;;;;;8.90;24.69;101861.25;4930159;29;20055;-80
2022/03/09 06:40:12;;;;;;;8.52;4.18;;;;;;;8.90;24.90;101857.66;4917611;28;20114;-80
2022/03/09 06:42:39;;;;;;;7.80;4.68;;;;;;;8.90;24.67;101857.66;4927156;29;20051;-78
2022/03/09 06:45:07;;;;;;;8.27;4.47;;;;;;;8.88;24.66;101863.16;4930548;28;20111;-79
2022/03/09 06:47:38;;;;;;;6.85;4.75;;;;;;;8.89;24.96;101870.34;4915168;29;20064;-81
2022/03/09 06:50:08;;;;;;;8.15;4.97;;;;;;;8.92;25.19;101869.31;4932715;29;20491;-79
2022/03/09 06:52:36;;;;;;;6.97;4.75;;;;;;;8.91;25.23;101864.84;4937950;29;20052;-74
2022/03/09 06:55:03;;;;;;;7.55;4.80;;;;;;;8.95;25.46;101871.91;4929195;29;20586;-74
2022/03/09 06:57:31;;;;;;;9.68;5.40;;;;;;;9.03;25.54;101876.03;4934792;29;20130;-81
2022/03/09 07:00:05;;;;;;;7.50;4.72;;;;;;;9.09;25.88;101874.88;4933539;29;20071;-80
2022/03/09 07:02:33;;;;;;;8.02;4.45;;;;;;;9.25;26.11;101885.91;4932829;29;20051;-80
2022/03/09 07:05:00;;;;;;;8.32;4.65;;;;;;;9.43;26.71;101879.66;4934276;29;20091;-80
2022/03/09 07:07:27;;;;;;;9.10;4.68;;;;;;;9.65;26.68;101879.53;4926123;29;20514;-81
2022/03/09 07:09:54;;;;;;;9.88;5.10;;;;;;;9.89;26.72;101890.09;4918314;29;20058;-81
2022/03/09 07:12:20;;;;;;;6.60;4.60;;;;;;;10.18;26.54;101879.72;4942890;29;20433;-80
2022/03/09 07:14:47;;;;;;;10.20;4.45;;;;;;;10.49;26.68;101882.69;4919293;29;20503;-81
2022/03/09 07:17:14;;;;;;;7.85;4.88;;;;;;;10.80;26.59;101884.72;4939206;29;20043;-82
2022/03/09 07:19:41;;;;;;;8.05;4.65;;;;;;;11.12;26.88;101883.03;4933907;29;20106;-81
2022/03/09 07:22:07;;;;;;;7.13;4.40;;;;;;;11.46;26.18;101887.53;4934337;29;20048;-81
2022/03/09 07:24:34;;;;;;;8.68;4.53;;;;;;;11.78;25.91;101883.97;4939600;29;20456;-82
2022/03/09 07:27:01;;;;;;;6.97;4.55;;;;;;;12.12;25.75;101885.69;4933798;29;20134;-81
2022/03/09 07:29:28;;;;;;;7.22;4.88;;;;;;;12.42;25.65;101884.91;4914536;29;20086;-80
2022/03/09 07:31:55;;;;;;;7.45;4.80;;;;;;;12.71;25.40;101878.59;4934737;29;20055;-79
2022/03/09 07:34:23;;;;;;;7.65;4.50;;;;;;;13.00;25.04;101886.91;4941320;28;20087;-79
2022/03/09 07:36:50;;;;;;;6.28;4.38;;;;;;;13.25;24.69;101887.19;4933175;29;20052;-80
2022/03/09 07:39:16;;;;;;;6.03;4.30;;;;;;;13.50;24.64;101889.28;4933074;28;20526;-79
2022/03/09 07:41:43;;;;;;;7.30;4.68;;;;;;;13.73;24.45;101898.72;4934016;29;20055;-79
2022/03/09 07:44:10;;;;;;;7.10;4.80;;;;;;;13.91;23.97;101890.25;4937641;29;20110;-81
2022/03/09 07:46:37;;;;;;;7.88;4.70;;;;;;;14.11;23.97;101902.59;4936342;29;20126;-80
2022/03/09 07:49:03;;;;;;;7.15;4.63;;;;;;;14.29;23.60;101898.66;4935558;29;20067;-79
2022/03/09 07:51:30;;;;;;;7.95;4.97;;;;;;;14.48;23.24;101897.50;4937437;28;20550;-79
2022/03/09 07:53:57;;;;;;;7.30;4.80;;;;;;;14.63;22.92;101901.94;4928953;29;20056;-82
2022/03/09 07:56:23;;;;;;;7.70;4.65;;;;;;;14.74;22.58;101905.66;4929726;29;20083;-81
2022/03/09 07:58:50;;;;;;;6.28;4.25;;;;;;;14.85;22.60;101913.16;4933857;28;20142;-82
2022/03/09 08:01:16;;;;;;;6.47;4.45;;;;;;;14.96;22.67;101909.69;4927467;28;20039;-83
2022/03/09 08:03:44;;;;;;;9.15;4.90;;;;;;;15.04;22.28;101916.41;4933954;29;20253;-82
2022/03/09 08:06:11;;;;;;;7.22;5.07;;;;;;;15.14;22.22;101919.38;4934586;29;20091;-83
2022/03/09 08:08:38;;;;;;;6.53;4.55;;;;;;;15.19;21.71;101917.19;4919233;29;20129;-84
2022/03/09 08:11:08;;;;;;;7.35;5.18;;;;;;;15.25;21.62;101927.69;4927042;28;20044;-82
2022/03/09 08:13:34;;;;;;;7.68;4.70;;;;;;;15.28;21.45;101926.63;4933779;29;20051;-83
2022/03/09 08:16:06;;;;;;;6.43;4.45;;;;;;;15.30;21.42;101920.06;4930772;29;20114;-82
2022/03/09 08:18:34;;;;;;;7.43;4.70;;;;;;;15.31;21.20;101916.34;4916691;29;20055;-82
2022/03/09 08:21:01;;;;;;;6.78;4.75;;;;;;;15.32;21.07;101914.50;4938829;29;23002;-84
2022/03/09 08:23:28;;;;;;;7.15;4.38;;;;;;;15.32;21.06;101907.13;4918489;29;20415;-84
2022/03/09 08:25:55;;;;;;;7.20;4.55;;;;;;;15.31;20.89;101913.63;4918173;29;20050;-81
2022/03/09 08:28:22;;;;;;;7.90;5.25;;;;;;;15.26;20.46;101912.16;4934081;28;20111;-80
2022/03/09 08:30:48;;;;;;;6.50;4.35;;;;;;;15.21;20.89;101913.38;4934412;28;20139;-80
2022/03/09 08:33:15;;;;;;;7.82;4.70;;;;;;;15.16;20.57;101928.34;4931910;29;20178;-80
2022/03/09 08:35:41;;;;;;;6.30;4.28;;;;;;;15.12;20.73;101926.81;4932591;29;20051;-80
2022/03/09 08:38:08;;;;;;;6.63;4.50;;;;;;;15.07;20.60;101931.72;4932652;28;20467;-82
2022/03/09 08:40:35;;;;;;;8.60;5.15;;;;;;;15.00;20.54;101933.97;4933072;29;20082;-82
2022/03/09 08:43:02;;;;;;;7.38;4.95;;;;;;;14.95;20.60;101932.56;4934665;29;20095;-81
2022/03/09 08:45:28;;;;;;;7.95;5.10;;;;;;;14.89;20.59;101936.59;4930449;29;20143;-82
2022/03/09 08:47:55;;;;;;;7.05;5.05;;;;;;;14.83;20.41;101935.13;4922858;29;20522;-82
2022/03/09 08:50:22;;;;;;;6.90;4.70;;;;;;;14.78;20.55;101939.16;4934337;29;20072;-81
2022/03/09 08:52:59;;;;;;;7.20;4.35;;;;;;;14.73;20.31;101936.75;4924456;29;20044;-83
2022/03/09 08:55:26;;;;;;;8.05;5.03;;;;;;;14.70;20.73;101941.53;4939558;29;20574;-83
2022/03/09 08:57:52;;;;;;;7.07;4.53;;;;;;;14.69;20.96;101937.91;4934405;28;20108;-82
2022/03/09 09:00:21;;;;;;;6.13;4.35;;;;;;;14.71;21.14;101940.56;4930767;29;20054;-83
2022/03/09 09:02:48;;;;;;;8.00;4.90;;;;;;;14.72;20.89;101935.00;4915382;29;20058;-83
2022/03/09 09:05:15;;;;;;;6.63;4.68;;;;;;;14.75;20.96;101932.03;4916128;29;20059;-81
2022/03/09 09:07:42;;;;;;;7.57;4.45;;;;;;;14.79;20.96;101933.59;4933820;29;20047;-81
2022/03/09 09:10:08;;;;;;;8.05;4.88;;;;;;;14.83;21.14;101926.03;4935009;29;20055;-81
2022/03/09 09:12:35;;;;;;;8.02;5.00;;;;;;;14.86;20.99;101934.06;4932839;29;20056;-81
2022/03/09 09:15:03;;;;;;;8.73;5.32;;;;;;;14.91;20.94;101939.19;4931930;28;20128;-82
2022/03/09 09:17:29;;;;;;;8.60;5.00;;;;;;;14.94;20.79;101939.88;4929828;29;20106;-81
2022/03/09 09:20:04;;;;;;;7.22;5.10;;;;;;;14.98;20.71;101935.97;4930466;28;20142;-81
2022/03/09 09:22:31;;;;;;;9.02;5.28;;;;;;;15.01;20.72;101943.94;4935790;28;20051;-81
2022/03/09 09:25:18;;;;;;;6.78;4.85;;;;;;;15.02;20.52;101939.34;4928697;29;20078;-81
2022/03/09 09:27:45;;;;;;;8.48;4.63;;;;;;;15.05;20.33;101942.78;4935181;28;20055;-81
2022/03/09 09:30:14;;;;;;;8.65;5.70;;;;;;;15.07;20.29;101935.31;4943779;29;20459;-83
2022/03/09 09:32:41;;;;;;;8.90;5.75;;;;;;;15.07;20.40;101940.78;4944407;29;20143;-82
2022/03/09 09:35:10;;;;;;;8.38;5.40;;;;;;;15.06;20.23;101940.91;4933544;29;20150;-82
2022/03/09 09:37:38;;;;;;;8.02;5.65;;;;;;;15.07;20.23;101937.19;4932308;29;20561;-81
2022/03/09 09:40:07;;;;;;;8.02;4.72;;;;;;;15.06;19.90;101941.78;4921889;29;20551;-81
2022/03/09 09:42:35;;;;;;;7.90;4.85;;;;;;;15.10;20.26;101934.22;4936251;29;20137;-81
2022/03/09 09:45:20;;;;;;;6.63;4.53;;;;;;;15.10;20.76;101931.50;4915580;29;20122;-81
2022/03/09 09:47:49;;;;;;;7.65;5.38;;;;;;;15.14;20.45;101925.72;4932297;29;20044;-81
2022/03/09 09:50:17;;;;;;;8.32;5.47;;;;;;;15.18;20.61;101931.84;4915893;29;20058;-81
2022/03/09 09:52:44;;;;;;;9.23;5.75;;;;;;;15.23;20.41;101930.53;4934335;29;20056;-81
2022/03/09 09:55:12;;;;;;;8.25;5.68;;;;;;;15.29;19.98;101922.91;4921864;29;20519;-80
2022/03/09 09:57:39;;;;;;;7.93;5.70;;;;;;;15.31;20.33;101921.81;4935672;28;20099;-80
2022/03/09 10:00:07;;;;;;;7.80;5.28;;;;;;;15.34;20.19;101912.50;4939346;29;20056;-81
2022/03/09 10:02:40;;;;;;;7.47;5.40;;;;;;;15.39;19.94;101922.16;4932875;29;20135;-82
2022/03/09 10:05:11;;;;;;;7.68;5.28;;;;;;;15.43;20.22;101922.81;4932115;28;20127;-81
2022/03/09 10:08:14;;;;;;;7.75;5.32;;;;;;;15.44;20.19;101921.84;4942508;29;20039;-80
2022/03/09 10:10:54;;;;;;;8.43;5.70;;;;;;;15.54;20.14;101923.84;4918910;29;20071;-79
2022/03/09 10:13:22;;;;;;;8.40;5.60;;;;;;;15.62;20.25;101919.69;4919009;28;20075;-80
2022/03/09 10:16:07;;;;;;;8.18;5.35;;;;;;;15.71;19.84;101916.31;4932335;29;20059;-80
2022/03/09 10:18:34;;;;;;;8.45;5.20;;;;;;;15.76;20.30;101919.56;4934889;29;20146;-81
2022/03/09 10:21:12;;;;;;;8.00;5.07;;;;;;;15.87;19.65;101928.78;4928132;29;20079;-81
2022/03/09 10:23:57;;;;;;;8.52;5.60;;;;;;;15.93;20.08;101916.50;4930448;29;20062;-81
2022/03/09 10:26:26;;;;;;;7.88;5.32;;;;;;;16.00;20.31;101926.03;4928963;29;20106;-81
2022/03/09 10:29:07;;;;;;;8.60;5.53;;;;;;;16.09;19.78;101922.63;4946067;28;20047;-79
2022/03/09 10:31:41;;;;;;;8.73;5.75;;;;;;;16.16;19.75;101929.38;4919022;29;20105;-79
2022/03/09 10:34:12;;;;;;;8.13;5.68;;;;;;;16.20;20.04;101917.22;4933864;28;20059;-81
2022/03/09 10:37:05;;;;;;;7.95;5.28;;;;;;;16.26;19.45;101929.59;4934950;29;20133;-78
2022/03/09 10:39:34;;;;;;;;;;;;;;;16.05;20.53;101915.63;4931460;29;20056;-79
2022/03/09 10:42:03;;;;;;;7.72;5.00;;;;;;;16.31;19.90;101920.03;4931414;29;19977;-79
2022/03/09 10:44:45;;;;;;;7.20;5.25;;;;;;;16.43;19.83;101912.78;4930778;29;20522;-82
2022/03/09 10:47:40;;;;;;;8.82;5.55;;;;;;;16.49;19.76;101909.56;4933379;29;20138;-80
2022/03/09 10:50:30;;;;;;;9.10;6.00;;;;;;;16.57;19.69;101907.13;4931755;28;20114;-79
2022/03/09 10:52:59;;;;;;;8.65;5.80;;;;;;;16.64;19.68;101913.94;4916373;29;20052;-80
2022/03/09 10:55:32;;;;;;;8.75;6.47;;;;;;;16.73;19.50;101915.09;4930094;29;20102;-80
2022/03/09 10:58:17;;;;;;;8.48;5.90;;;;;;;16.78;19.34;101912.91;4936554;29;20059;-79
2022/03/09 11:00:55;;;;;;;9.27;6.22;;;;;;;16.85;19.12;101905.06;4930267;29;20107;-80
2022/03/09 11:03:27;;;;;;;10.10;6.63;;;;;;;16.90;19.66;101891.88;4933417;29;20044;-78
2022/03/09 11:05:56;;;;;;;7.68;5.40;;;;;;;16.98;19.62;101894.91;4931691;29;20075;-79
2022/03/09 11:08:26;;;;;;;7.95;5.72;;;;;;;17.04;19.41;101886.22;4941758;29;20055;-79
2022/03/09 11:10:55;;;;;;;9.00;5.85;;;;;;;17.10;19.60;101893.97;4913787;29;20562;-78
2022/03/09 11:13:22;;;;;;;9.90;6.25;;;;;;;17.17;19.47;101887.00;4931297;29;20087;-79
2022/03/09 11:15:49;;;;;;;8.60;6.57;;;;;;;17.24;19.10;101885.53;4930994;29;20047;-79
2022/03/09 11:18:19;;;;;;;8.52;5.93;;;;;;;17.33;19.20;101883.94;4933490;28;20444;-79
2022/03/09 11:20:50;;;;;;;8.43;6.28;;;;;;;17.38;19.22;101877.06;4931355;29;20086;-80
2022/03/09 11:23:18;;;;;;;9.73;6.82;;;;;;;17.43;18.85;101873.97;4932401;28;20191;-80
2022/03/09 11:25:55;;;;;;;8.40;6.55;;;;;;;17.51;18.59;101885.22;4913579;29;20052;-81
2022/03/09 11:28:35;;;;;;;10.25;6.63;;;;;;;17.54;18.35;101879.50;4913515;29;20531;-80
2022/03/09 11:31:05;;;;;;;8.90;6.25;;;;;;;17.58;18.76;101880.97;4930076;29;20111;-81
2022/03/09 11:33:51;;;;;;;9.43;6.63;;;;;;;17.59;18.26;101869.00;4943572;29;20067;-80
2022/03/09 11:36:23;;;;;;;8.55;6.15;;;;;;;17.62;19.02;101879.78;4933797;29;20521;-80
2022/03/09 11:38:54;;;;;;;8.43;6.05;;;;;;;17.68;18.65;101867.44;4924777;29;20079;-80